Time;durP1;ratioP1;P1;durP2;ratioP2;P2;SDS_P1;SDS_P2;PMS_P1;PMS_P2;Temp;Humidity;BMP_temperature;BMP_pressure;BME280_temperature;BME280_humidity;BME280_pressure;Samples;Min_cycle;Max_cycle;Signal;HPM_P1;HPM_P2
2023/04/22 00:01:13;;;;;;;12.40;8.20;;;;;;;6.06;67.34;97025.05;110156;1240;69237;-80
2023/04/22 00:03:43;;;;;;;9.80;8.00;;;;;;;6.05;67.11;97028.91;110395;1249;69217;-80
2023/04/22 00:06:13;;;;;;;;;;;;;;;6.04;66.53;97029.29;110328;1243;59682;-82
2023/04/22 00:08:42;;;;;;;8.00;6.90;;;;;;;6.04;66.99;97031.05;110609;1241;59692;-81
2023/04/22 00:11:12;;;;;;;10.60;8.10;;;;;;;6.05;67.51;97030.95;110358;1242;71863;-80
2023/04/22 00:13:42;;;;;;;;;;;;;;;6.04;69.90;97033.14;110494;1239;69814;-83
2023/04/22 00:16:11;;;;;;;9.50;6.70;;;;;;;5.97;69.22;97032.17;110990;1239;68524;-83
2023/04/22 00:18:42;;;;;;;10.30;8.80;;;;;;;5.93;68.71;97035.33;112038;1240;59745;-82
2023/04/22 00:21:13;;;;;;;9.30;8.00;;;;;;;5.88;70.95;97035.63;110553;1242;59732;-81
2023/04/22 00:23:44;;;;;;;9.90;8.30;;;;;;;5.81;69.93;97040.37;110524;1242;71447;-80
2023/04/22 00:26:14;;;;;;;9.70;7.70;;;;;;;5.73;69.27;97038.09;110606;1242;68259;-80
2023/04/22 00:28:44;;;;;;;13.30;9.20;;;;;;;5.65;74.74;97038.03;110437;1243;68823;-82
2023/04/22 00:31:13;;;;;;;11.80;10.50;;;;;;;5.58;75.10;97033.73;110391;1243;59702;-83
2023/04/22 00:33:45;;;;;;;11.90;10.60;;;;;;;5.52;75.55;97039.30;110391;1242;59690;-81
2023/04/22 00:36:15;;;;;;;13.50;11.50;;;;;;;5.48;73.42;97039.55;110168;1247;70762;-82
2023/04/22 00:38:51;;;;;;;12.00;10.60;;;;;;;5.46;73.29;97038.30;110307;1242;69253;-83
2023/04/22 00:41:24;;;;;;;11.70;10.50;;;;;;;5.44;74.98;97042.91;110295;1250;69156;-82
2023/04/22 00:43:58;;;;;;;12.40;10.40;;;;;;;5.43;75.11;97039.65;110308;1245;59654;-80
2023/04/22 00:46:29;;;;;;;13.00;10.10;;;;;;;5.44;74.24;97040.98;110356;1242;59695;-81
2023/04/22 00:49:00;;;;;;;12.80;8.80;;;;;;;5.44;74.58;97041.34;110577;1243;71369;-80
2023/04/22 00:51:31;;;;;;;8.90;7.50;;;;;;;5.43;75.72;97042.11;110521;1242;69046;-80
2023/04/22 00:54:03;;;;;;;13.40;9.50;;;;;;;5.38;76.63;97042.54;110381;1244;69283;-81
2023/04/22 00:56:37;;;;;;;13.70;11.40;;;;;;;5.33;77.51;97040.77;110172;1239;59764;-82
2023/04/22 00:59:08;;;;;;;14.30;11.30;;;;;;;5.28;78.46;97043.45;110542;1242;59673;-81
2023/04/22 01:01:38;;;;;;;15.20;12.20;;;;;;;5.27;79.66;97044.05;110469;1243;71464;-80
2023/04/22 01:04:11;;;;;;;15.60;11.60;;;;;;;5.26;78.41;97043.09;110296;1242;69203;-80
2023/04/22 01:06:42;;;;;;;14.50;11.60;;;;;;;5.22;79.05;97041.94;110116;1242;68308;-80
2023/04/22 01:09:12;;;;;;;14.20;10.40;;;;;;;5.16;78.41;97043.64;110185;1245;59707;-80
2023/04/22 01:11:42;;;;;;;;;;;;;;;5.09;76.91;97045.92;110412;1245;59741;-83
2023/04/22 01:14:12;;;;;;;13.10;9.80;;;;;;;5.02;78.50;97046.49;110352;1242;70700;-82
2023/04/22 01:16:44;;;;;;;9.80;8.20;;;;;;;4.96;76.03;97046.67;110364;1242;68532;-82
2023/04/22 01:19:15;;;;;;;9.80;7.90;;;;;;;4.94;74.42;97048.82;110334;1243;67722;-80
2023/04/22 01:21:47;;;;;;;13.70;11.00;;;;;;;4.95;75.24;97052.26;110370;1242;59679;-82
2023/04/22 01:24:20;;;;;;;11.50;9.00;;;;;;;4.90;77.30;97050.95;110476;1243;59747;-81
2023/04/22 01:26:50;;;;;;;12.10;9.30;;;;;;;4.83;80.57;97053.42;110610;1241;71199;-83
2023/04/22 01:29:20;;;;;;;12.30;8.60;;;;;;;4.78;82.01;97049.73;112370;1241;69050;-82
2023/04/22 01:31:52;;;;;;;13.60;10.80;;;;;;;4.73;82.24;97050.38;110815;1242;68856;-80
2023/04/22 01:34:28;;;;;;;13.20;10.40;;;;;;;4.65;82.54;97052.00;110577;1242;59759;-83
2023/04/22 01:37:02;;;;;;;11.50;10.00;;;;;;;4.59;81.11;97050.77;110517;1245;59621;-83
2023/04/22 01:39:35;;;;;;;14.20;10.80;;;;;;;4.55;79.60;97053.06;110389;1241;70667;-82
2023/04/22 01:42:07;;;;;;;13.10;11.40;;;;;;;4.53;79.02;97053.86;110194;1242;68811;-81
2023/04/22 01:44:38;;;;;;;10.70;8.70;;;;;;;4.48;81.41;97061.05;110201;1241;67641;-81
2023/04/22 01:47:12;;;;;;;12.60;10.30;;;;;;;4.42;80.02;97060.13;110102;1245;59737;-81
2023/04/22 01:49:43;;;;;;;13.80;10.50;;;;;;;4.37;83.02;97065.10;110313;1242;59634;-82
2023/04/22 01:52:13;;;;;;;12.70;9.80;;;;;;;4.31;83.12;97069.85;110455;1242;70877;-81
2023/04/22 01:54:44;;;;;;;11.60;8.90;;;;;;;4.26;85.23;97070.30;110330;1242;68286;-81
2023/04/22 01:57:15;;;;;;;10.40;9.20;;;;;;;4.20;85.33;97070.98;110364;1242;68394;-81
2023/04/22 01:59:45;;;;;;;10.70;8.40;;;;;;;4.13;85.99;97069.82;110106;1246;59737;-81
2023/04/22 02:02:18;;;;;;;11.20;8.80;;;;;;;4.07;85.10;97076.49;110186;1242;59665;-81
2023/04/22 02:04:50;;;;;;;10.80;8.70;;;;;;;4.02;80.09;97078.67;110111;1245;71354;-81
2023/04/22 02:07:26;;;;;;;12.90;10.60;;;;;;;3.98;78.73;97074.88;110130;1245;69127;-81
2023/04/22 02:09:57;;;;;;;14.60;10.50;;;;;;;3.96;80.72;97076.86;110331;1245;69170;-81
2023/04/22 02:12:27;;;;;;;11.80;9.30;;;;;;;3.92;84.20;97078.14;110408;1241;59670;-81
2023/04/22 02:14:58;;;;;;;12.20;9.40;;;;;;;3.87;84.86;97077.84;110172;1242;59672;-81
2023/04/22 02:17:28;;;;;;;11.70;9.50;;;;;;;3.83;88.31;97078.96;110350;1243;71380;-80
2023/04/22 02:19:57;;;;;;;;;;;;;;;3.76;87.87;97075.30;110381;1242;69202;-81
2023/04/22 02:22:28;;;;;;;12.60;9.50;;;;;;;3.70;85.81;97076.34;110314;1242;69302;-83
2023/04/22 02:25:02;;;;;;;10.90;8.50;;;;;;;3.64;84.61;97075.96;110227;1242;59726;-82
2023/04/22 02:27:33;;;;;;;10.70;9.10;;;;;;;3.59;83.10;97077.40;110147;1245;59685;-82
2023/04/22 02:30:07;;;;;;;11.30;9.10;;;;;;;3.56;83.47;97074.42;110185;1246;71434;-81
2023/04/22 02:32:39;;;;;;;9.70;8.70;;;;;;;3.54;85.60;97076.92;110185;1249;69265;-81
2023/04/22 02:35:11;;;;;;;11.30;9.50;;;;;;;3.54;86.26;97078.84;110332;1242;69241;-81
2023/04/22 02:37:43;;;;;;;12.30;9.20;;;;;;;3.53;86.67;97076.83;110182;1245;59664;-83
2023/04/22 02:40:16;;;;;;;14.80;11.30;;;;;;;3.52;87.44;97075.64;110678;1240;60188;-82
2023/04/22 02:42:47;;;;;;;13.00;9.80;;;;;;;3.52;84.72;97074.83;112341;1240;71411;-83
2023/04/22 02:45:18;;;;;;;13.20;11.30;;;;;;;3.53;86.64;97073.58;110544;1242;69689;-82
2023/04/22 02:47:47;;;;;;;12.00;9.80;;;;;;;3.53;85.62;97073.19;110364;1242;68664;-82
2023/04/22 02:50:17;;;;;;;;;;;;;;;3.54;87.66;97070.75;110417;1241;59701;-83
2023/04/22 02:52:48;;;;;;;13.10;11.10;;;;;;;3.54;90.56;97075.05;110223;1241;59785;-83
2023/04/22 02:55:23;;;;;;;14.70;11.00;;;;;;;3.53;91.75;97077.48;110150;1252;71294;-84
2023/04/22 02:57:52;;;;;;;;;;;;;;;3.52;91.18;97081.52;110390;1242;68356;-84
2023/04/22 03:00:23;;;;;;;11.70;9.70;;;;;;;3.49;89.25;97079.77;110321;1241;68564;-84
2023/04/22 03:02:53;;;;;;;12.60;9.40;;;;;;;3.46;87.15;97080.10;110127;1244;59707;-82
2023/04/22 03:05:31;;;;;;;13.70;11.80;;;;;;;3.45;91.63;97077.06;110380;1242;59688;-81
2023/04/22 03:08:03;;;;;;;14.40;11.70;;;;;;;3.46;94.83;97081.48;110352;1242;70456;-82
2023/04/22 03:10:34;;;;;;;13.40;11.70;;;;;;;3.47;94.46;97082.66;110207;1241;69219;-82
2023/04/22 03:13:05;;;;;;;15.20;12.20;;;;;;;3.47;93.18;97086.95;110123;1246;69168;-81
2023/04/22 03:15:39;;;;;;;13.30;11.10;;;;;;;3.47;91.06;97091.26;110157;1243;59725;-82
2023/04/22 03:18:10;;;;;;;15.50;11.40;;;;;;;3.51;92.24;97089.35;110601;1241;59687;-82
2023/04/22 03:20:42;;;;;;;15.20;12.10;;;;;;;3.58;90.67;97090.20;110319;1244;71406;-82
2023/04/22 03:23:11;;;;;;;13.60;10.20;;;;;;;3.68;89.04;97093.14;110508;1241;69351;-81
2023/04/22 03:25:43;;;;;;;13.10;11.40;;;;;;;3.75;90.78;97092.95;110408;1242;68531;-81
2023/04/22 03:28:13;;;;;;;13.30;10.40;;;;;;;3.72;92.34;97092.23;110674;1241;59719;-82
2023/04/22 03:30:43;;;;;;;12.80;9.80;;;;;;;3.69;92.24;97093.60;110760;1241;58596;-81
2023/04/22 03:33:12;;;;;;;12.20;9.60;;;;;;;3.67;92.53;97094.56;110201;1245;70814;-81
2023/04/22 03:35:53;;;;;;;13.00;9.90;;;;;;;3.68;93.25;97096.10;110480;1242;69079;-82
2023/04/22 03:38:23;;;;;;;13.20;10.20;;;;;;;3.69;92.96;97100.52;110279;1244;69329;-81
2023/04/22 03:40:54;;;;;;;11.50;9.80;;;;;;;3.71;93.60;97102.15;110366;1244;59746;-82
2023/04/22 03:43:34;;;;;;;16.20;12.50;;;;;;;3.73;89.34;97105.45;110489;1240;59702;-81
2023/04/22 03:46:09;;;;;;;19.70;12.00;;;;;;;3.76;88.97;97107.21;110517;1241;71390;-81
2023/04/22 03:48:42;;;;;;;14.10;12.40;;;;;;;3.80;90.17;97113.04;110443;1242;69220;-82
2023/04/22 03:51:33;;;;;;;11.40;9.70;;;;;;;3.83;91.47;97114.30;110452;1243;68196;-83
2023/04/22 03:54:06;;;;;;;14.90;12.00;;;;;;;3.85;91.27;97117.65;110799;1241;59741;-82
2023/04/22 03:56:37;;;;;;;13.50;10.70;;;;;;;3.90;91.10;97117.36;112053;1241;58145;-79
2023/04/22 03:59:09;;;;;;;16.00;12.40;;;;;;;3.96;90.90;97121.37;110941;1244;70943;-81
2023/04/22 04:01:39;;;;;;;13.90;11.60;;;;;;;4.05;91.68;97124.31;110545;1241;68498;-84
2023/04/22 04:04:10;;;;;;;14.90;11.90;;;;;;;4.14;90.39;97126.31;110356;1245;69145;-80
2023/04/22 04:06:45;;;;;;;13.60;11.60;;;;;;;4.18;91.87;97125.41;110627;1243;59741;-81
2023/04/22 04:09:15;;;;;;;13.60;11.40;;;;;;;4.19;91.11;97125.69;110275;1245;59649;-81
2023/04/22 04:11:47;;;;;;;19.50;13.30;;;;;;;4.19;91.71;97129.15;110204;1244;71596;-82
2023/04/22 04:14:17;;;;;;;20.90;15.10;;;;;;;4.17;91.49;97137.73;110339;1241;69166;-81
2023/04/22 04:16:48;;;;;;;19.30;14.00;;;;;;;4.14;93.29;97140.82;110644;1241;70191;-82
2023/04/22 04:19:24;;;;;;;17.50;13.90;;;;;;;4.16;93.42;97146.38;110217;1244;60265;-81
2023/04/22 04:21:54;;;;;;;18.60;14.20;;;;;;;4.20;93.15;97148.61;110265;1248;59733;-76
2023/04/22 04:24:24;;;;;;;19.10;14.10;;;;;;;4.26;90.03;97149.14;110114;1244;70990;-82
2023/04/22 04:26:58;;;;;;;14.50;12.50;;;;;;;4.35;90.03;97154.04;110377;1244;69794;-81
2023/04/22 04:29:31;;;;;;;16.00;12.10;;;;;;;4.44;88.34;97152.70;110701;1238;69306;-81
2023/04/22 04:32:09;;;;;;;13.80;11.10;;;;;;;4.54;86.64;97160.46;110149;1242;59757;-82
2023/04/22 04:34:39;;;;;;;13.90;11.90;;;;;;;4.65;90.03;97157.81;110338;1240;59700;-82
2023/04/22 04:37:08;;;;;;;13.00;11.50;;;;;;;4.76;91.10;97158.97;110547;1241;71382;-81
2023/04/22 04:39:47;;;;;;;13.50;11.30;;;;;;;4.88;89.92;97163.50;110263;1245;69646;-84
2023/04/22 04:42:17;;;;;;;13.50;10.70;;;;;;;5.01;90.03;97167.80;110352;1241;68901;-84
2023/04/22 04:44:52;;;;;;;14.10;11.40;;;;;;;5.14;91.28;97170.36;110357;1238;59664;-84
2023/04/22 04:47:22;;;;;;;13.20;10.70;;;;;;;5.28;88.05;97168.91;110526;1241;60090;-82
2023/04/22 04:49:53;;;;;;;13.80;11.90;;;;;;;5.41;87.18;97170.60;110346;1241;70660;-83
2023/04/22 04:52:22;;;;;;;14.60;12.20;;;;;;;5.56;87.36;97175.66;110318;1241;70208;-84
2023/04/22 04:54:52;;;;;;;15.20;12.30;;;;;;;5.73;85.58;97175.73;110354;1241;69810;-85
2023/04/22 04:57:21;;;;;;;13.40;11.80;;;;;;;5.89;85.76;97174.98;110297;1240;59666;-84
2023/04/22 04:59:50;;;;;;;13.60;11.10;;;;;;;6.05;84.39;97173.90;110295;1244;59683;-85
2023/04/22 05:02:23;;;;;;;12.40;10.70;;;;;;;6.23;83.83;97173.16;110113;1241;71638;-85
2023/04/22 05:04:59;;;;;;;11.60;10.40;;;;;;;6.57;83.56;97172.53;110142;1243;67420;-86
2023/04/22 05:07:30;;;;;;;11.70;9.60;;;;;;;6.93;83.60;97170.66;110381;1242;69251;-86
2023/04/22 05:10:00;;;;;;;15.20;12.50;;;;;;;7.18;81.31;97171.04;111613;1240;58794;-86
2023/04/22 05:12:29;;;;;;;19.90;15.80;;;;;;;7.27;81.27;97169.05;111711;1242;59640;-85
2023/04/22 05:14:58;;;;;;;18.20;14.60;;;;;;;7.33;82.05;97171.13;110847;1243;70958;-86
2023/04/22 05:17:27;;;;;;;18.20;14.60;;;;;;;7.35;81.48;97169.27;110367;1243;68458;-85
2023/04/22 05:19:57;;;;;;;20.40;15.50;;;;;;;7.37;80.62;97171.73;110332;1244;68784;-86
2023/04/22 05:22:26;;;;;;;20.80;16.40;;;;;;;7.36;81.22;97171.94;110288;1245;59739;-86
2023/04/22 05:24:54;;;;;;;20.60;15.50;;;;;;;7.39;81.13;97174.90;110238;1244;59672;-85
2023/04/22 05:27:23;;;;;;;18.10;13.90;;;;;;;7.60;81.15;97174.41;110289;1241;71377;-86
2023/04/22 05:29:52;;;;;;;16.80;12.30;;;;;;;8.04;81.04;97180.22;110346;1247;69931;-86
2023/04/22 05:32:24;;;;;;;15.10;12.30;;;;;;;8.56;77.35;97178.52;110307;1244;69098;-86
2023/04/22 05:34:53;;;;;;;12.70;11.40;;;;;;;9.03;73.69;97173.52;110324;1244;59677;-86
2023/04/22 05:37:22;;;;;;;13.90;10.40;;;;;;;9.52;72.35;97177.13;110121;1244;59730;-86
2023/04/22 05:39:51;;;;;;;12.40;10.70;;;;;;;10.00;69.15;97176.93;110379;1242;70417;-87
2023/04/22 05:42:21;;;;;;;;;;;;;;;10.37;66.47;97177.14;110381;1242;69707;-86
2023/04/22 05:44:51;;;;;;;13.60;11.50;;;;;;;10.61;65.32;97175.98;110345;1240;69144;-85
2023/04/22 05:47:20;;;;;;;13.50;12.00;;;;;;;10.95;63.32;97179.69;110393;1244;59745;-85
2023/04/22 05:49:49;;;;;;;13.90;12.50;;;;;;;11.02;62.01;97183.97;110185;1244;59636;-84
2023/04/22 05:52:32;;;;;;;15.00;12.40;;;;;;;11.02;62.04;97182.58;110318;1240;71396;-84
2023/04/22 05:55:13;;;;;;;14.90;12.80;;;;;;;11.01;62.24;97180.61;110308;1243;69829;-86
2023/04/22 05:57:43;;;;;;;16.50;12.50;;;;;;;11.00;63.30;97179.45;110188;1243;69339;-84
2023/04/22 06:00:22;;;;;;;13.40;12.00;;;;;;;11.17;64.61;97179.67;110232;1241;59745;-87
2023/04/22 06:02:59;;;;;;;15.00;13.30;;;;;;;11.30;62.81;97186.36;109993;1241;59685;-86
2023/04/22 06:05:28;;;;;;;18.70;14.70;;;;;;;11.45;62.57;97181.31;110177;1242;71483;-85
2023/04/22 06:07:58;;;;;;;17.40;15.00;;;;;;;11.42;61.61;97190.63;110263;1244;69113;-85
2023/04/22 06:10:27;;;;;;;19.50;14.90;;;;;;;11.53;60.31;97189.17;110254;1244;69330;-83
2023/04/22 06:12:56;;;;;;;17.40;13.20;;;;;;;11.74;59.99;97189.06;110304;1243;59675;-83
2023/04/22 06:15:25;;;;;;;16.70;13.90;;;;;;;11.79;60.22;97190.02;110446;1241;59644;-82
2023/04/22 06:17:53;;;;;;;15.10;12.70;;;;;;;12.14;58.79;97192.79;110602;1241;73063;-78
2023/04/22 06:20:23;;;;;;;15.70;12.30;;;;;;;12.54;58.37;97194.16;112029;1241;68488;-84
2023/04/22 06:22:52;;;;;;;13.80;11.10;;;;;;;12.74;56.02;97192.46;110649;1246;69065;-83
2023/04/22 06:25:21;;;;;;;12.90;11.40;;;;;;;13.02;55.97;97188.22;110552;1241;60539;-83
2023/04/22 06:27:50;;;;;;;13.40;11.30;;;;;;;13.68;56.20;97189.23;110359;1244;59154;-82
2023/04/22 06:30:20;;;;;;;10.80;9.20;;;;;;;14.20;54.51;97191.73;110367;1242;69735;-83
2023/04/22 06:32:51;;;;;;;10.60;9.40;;;;;;;14.59;49.24;97193.33;110312;1242;69833;-83
2023/04/22 06:35:21;;;;;;;11.30;8.60;;;;;;;15.09;51.30;97193.73;110295;1242;69805;-83
2023/04/22 06:37:50;;;;;;;9.40;8.40;;;;;;;15.67;49.60;97192.17;110244;1242;59740;-83
2023/04/22 06:40:19;;;;;;;10.50;9.30;;;;;;;16.09;48.85;97198.09;110189;1244;59682;-83
2023/04/22 06:43:09;;;;;;;9.50;8.40;;;;;;;16.12;45.40;97195.55;110302;1242;70001;-84
2023/04/22 06:45:56;;;;;;;8.60;7.70;;;;;;;16.05;43.48;97195.88;110492;1241;69808;-81
2023/04/22 06:48:44;;;;;;;7.80;7.00;;;;;;;16.38;45.83;97200.33;110343;1242;69305;-83
2023/04/22 06:51:23;;;;;;;7.70;6.80;;;;;;;16.84;43.29;97198.42;110218;1244;59664;-83
2023/04/22 06:53:52;;;;;;;9.70;7.50;;;;;;;17.17;41.70;97198.51;110288;1244;59750;-81
2023/04/22 06:56:21;;;;;;;7.60;6.80;;;;;;;17.31;39.94;97195.30;110476;1241;71404;-82
2023/04/22 06:58:49;;;;;;;7.60;6.80;;;;;;;17.67;38.85;97195.39;110517;1241;69772;-82
2023/04/22 07:01:18;;;;;;;7.10;6.40;;;;;;;17.48;36.03;97194.73;110272;1241;70021;-82
2023/04/22 07:03:47;;;;;;;8.30;6.60;;;;;;;17.15;36.75;97195.78;110580;1242;59724;-77
2023/04/22 07:06:17;;;;;;;8.20;7.30;;;;;;;17.58;36.66;97190.98;110314;1241;59649;-83
2023/04/22 07:08:46;;;;;;;7.40;6.50;;;;;;;17.46;36.56;97190.92;110150;1245;71388;-82
2023/04/22 07:11:15;;;;;;;;;;;;;;;17.72;37.79;97188.34;110299;1243;69131;-82
2023/04/22 07:14:00;;;;;;;6.50;5.90;;;;;;;18.16;36.82;97193.42;110282;1241;69300;-81
2023/04/22 07:16:29;;;;;;;7.00;6.30;;;;;;;18.53;35.83;97192.83;110354;1243;59730;-82
2023/04/22 07:18:58;;;;;;;7.50;6.00;;;;;;;18.76;33.84;97199.26;110315;1240;59760;-82
2023/04/22 07:21:27;;;;;;;6.70;5.70;;;;;;;18.62;33.54;97197.23;110332;1242;71478;-82
2023/04/22 07:23:56;;;;;;;8.80;5.40;;;;;;;18.21;33.16;97199.92;110433;1241;69804;-80
2023/04/22 07:26:24;;;;;;;6.80;6.10;;;;;;;18.15;33.55;97197.19;110915;1241;69279;-81
2023/04/22 07:28:53;;;;;;;6.20;5.60;;;;;;;18.26;33.30;97196.61;111753;1242;59655;-82
2023/04/22 07:31:22;;;;;;;7.00;5.70;;;;;;;18.28;33.22;97194.27;110525;1241;59678;-82
2023/04/22 07:33:50;;;;;;;5.90;5.30;;;;;;;18.55;34.38;97196.96;110404;1242;70620;-81
2023/04/22 07:36:19;;;;;;;7.50;5.60;;;;;;;19.24;34.47;97195.61;110561;1241;68911;-82
2023/04/22 07:38:48;;;;;;;6.40;5.70;;;;;;;19.87;33.74;97193.27;110445;1241;69290;-78
2023/04/22 07:41:17;;;;;;;6.00;5.30;;;;;;;20.27;33.16;97192.20;110390;1241;59704;-79
2023/04/22 07:43:46;;;;;;;8.20;6.20;;;;;;;20.43;32.15;97194.73;110544;1243;59694;-82
2023/04/22 07:46:14;;;;;;;6.50;5.80;;;;;;;20.44;32.26;97193.98;110455;1242;71392;-83
2023/04/22 07:48:43;;;;;;;6.00;5.40;;;;;;;20.83;32.89;97194.36;110306;1242;68587;-82
2023/04/22 07:51:12;;;;;;;8.30;6.90;;;;;;;21.28;32.76;97196.55;110424;1242;68557;-77
2023/04/22 07:53:41;;;;;;;6.40;5.50;;;;;;;21.45;32.13;97195.35;110286;1241;59742;-78
2023/04/22 07:56:10;;;;;;;7.70;6.40;;;;;;;21.20;30.51;97194.20;110303;1242;59615;-76
2023/04/22 07:58:38;;;;;;;8.30;6.90;;;;;;;20.91;31.75;97196.73;110494;1241;70630;-78
2023/04/22 08:01:07;;;;;;;7.70;6.90;;;;;;;20.50;31.71;97195.94;110504;1242;69286;-77
2023/04/22 08:03:36;;;;;;;7.60;6.80;;;;;;;20.88;32.46;97197.27;110275;1241;69388;-77
2023/04/22 08:06:05;;;;;;;8.10;6.70;;;;;;;21.01;31.93;97197.83;110433;1241;59727;-76
2023/04/22 08:08:34;;;;;;;8.60;7.00;;;;;;;21.01;31.35;97198.92;110215;1242;59675;-78
2023/04/22 08:11:03;;;;;;;6.50;5.80;;;;;;;20.53;30.87;97192.58;110771;1241;71980;-75
2023/04/22 08:13:32;;;;;;;;;;;;;;;20.25;31.50;97192.11;110229;1242;69827;-78
2023/04/22 08:16:02;;;;;;;7.50;6.50;;;;;;;20.33;31.95;97188.02;110392;1242;69167;-77
2023/04/22 08:18:30;;;;;;;;;;;;;;;20.54;31.52;97191.92;110510;1238;59708;-79
2023/04/22 08:20:59;;;;;;;7.70;6.90;;;;;;;20.47;32.02;97189.73;110470;1241;59756;-78
2023/04/22 08:23:28;;;;;;;8.90;6.60;;;;;;;20.62;31.50;97190.42;110387;1241;71155;-78
2023/04/22 08:25:57;;;;;;;6.50;5.80;;;;;;;21.04;31.13;97191.68;110309;1243;68600;-78
2023/04/22 08:28:26;;;;;;;7.50;6.40;;;;;;;21.30;31.34;97188.46;110056;1241;68981;-78
2023/04/22 08:30:54;;;;;;;10.90;6.50;;;;;;;21.50;30.43;97185.66;110379;1243;59695;-78
2023/04/22 08:33:23;;;;;;;8.20;6.70;;;;;;;21.46;30.86;97184.67;110781;1240;59700;-78
2023/04/22 08:35:55;;;;;;;7.30;6.30;;;;;;;21.69;30.81;97182.25;111432;1242;70645;-78
2023/04/22 08:38:25;;;;;;;7.30;6.20;;;;;;;22.48;29.84;97179.22;109999;1242;432999;-77
2023/04/22 08:40:58;;;;;;;6.80;6.10;;;;;;;22.83;28.11;97176.31;110325;1243;69854;-78
2023/04/22 08:43:27;;;;;;;6.20;5.60;;;;;;;23.12;27.96;97180.69;110329;1249;59709;-75
2023/04/22 08:45:56;;;;;;;;;;;;;;;23.20;27.36;97180.21;110329;1241;59769;-78
2023/04/22 08:48:25;;;;;;;5.80;5.20;;;;;;;23.70;27.22;97179.88;110360;1242;71457;-78
2023/04/22 08:50:54;;;;;;;7.20;5.50;;;;;;;23.02;25.68;97178.09;110315;1242;69832;-77
2023/04/22 08:53:23;;;;;;;6.00;5.40;;;;;;;22.81;26.83;97182.23;110340;1242;69627;-77
2023/04/22 08:55:55;;;;;;;5.60;5.00;;;;;;;23.65;26.46;97177.67;110316;1243;59730;-77
2023/04/22 08:58:24;;;;;;;6.00;5.40;;;;;;;24.08;23.65;97173.05;110339;1243;59640;-76
2023/04/22 09:00:54;;;;;;;6.40;5.50;;;;;;;24.33;23.91;97177.60;110320;1242;71957;-77
2023/04/22 09:03:23;;;;;;;5.90;5.30;;;;;;;24.38;23.81;97172.08;110393;1243;69823;-78
2023/04/22 09:05:53;;;;;;;5.30;4.80;;;;;;;24.48;23.83;97169.83;110354;1241;69265;-77
2023/04/22 09:08:23;;;;;;;6.70;5.80;;;;;;;24.49;23.57;97169.83;110323;1243;59634;-77
2023/04/22 09:10:52;;;;;;;5.50;4.90;;;;;;;24.48;23.81;97172.78;110324;1242;59635;-78
2023/04/22 09:13:23;;;;;;;7.70;6.90;;;;;;;24.29;22.98;97168.12;110353;1242;71378;-76
2023/04/22 09:15:51;;;;;;;6.70;5.40;;;;;;;24.15;23.24;97164.85;110350;1242;69226;-77
2023/04/22 09:18:20;;;;;;;5.90;5.30;;;;;;;23.50;23.64;97163.39;110272;1242;68508;-75
2023/04/22 09:20:54;;;;;;;6.70;5.60;;;;;;;22.80;24.25;97165.84;110134;1242;59769;-77
2023/04/22 09:23:23;;;;;;;6.10;5.50;;;;;;;21.83;25.54;97163.27;110294;1241;59686;-75
2023/04/22 09:25:51;;;;;;;5.30;4.80;;;;;;;21.21;25.71;97165.48;110313;1242;70811;-75
2023/04/22 09:28:20;;;;;;;6.40;5.40;;;;;;;20.57;26.20;97165.98;110292;1242;69806;-75
2023/04/22 09:30:49;;;;;;;7.50;6.40;;;;;;;20.23;27.05;97162.23;110286;1241;68335;-75
2023/04/22 09:33:18;;;;;;;6.10;5.50;;;;;;;20.23;27.13;97163.97;110150;1241;59700;-75
2023/04/22 09:35:46;;;;;;;7.40;5.90;;;;;;;20.31;27.02;97163.40;110219;1243;59710;-76
2023/04/22 09:38:15;;;;;;;6.60;6.00;;;;;;;20.94;27.31;97160.30;110387;1241;71210;-76
2023/04/22 09:40:45;;;;;;;6.10;5.50;;;;;;;21.86;26.38;97159.58;110208;1244;69262;-77
2023/04/22 09:43:16;;;;;;;;;;;;;;;22.28;25.14;97162.90;110882;1241;69272;-77
2023/04/22 09:45:45;;;;;;;8.50;5.80;;;;;;;23.03;24.96;97159.65;110243;1241;59708;-78
2023/04/22 09:48:17;;;;;;;6.20;5.60;;;;;;;23.53;24.00;97152.84;110362;1241;59795;-76
2023/04/22 09:50:48;;;;;;;7.80;5.80;;;;;;;24.20;23.41;97150.52;110333;1243;71265;-75
2023/04/22 09:53:19;;;;;;;6.50;5.70;;;;;;;24.54;23.00;97154.84;110385;1242;69251;-75
2023/04/22 09:55:50;;;;;;;5.50;5.00;;;;;;;24.83;22.68;97154.89;110239;1241;69128;-76
2023/04/22 09:58:22;;;;;;;8.80;6.20;;;;;;;25.26;23.07;97150.77;110317;1242;59813;-76
2023/04/22 10:00:58;;;;;;;6.90;5.00;;;;;;;25.65;22.36;97146.36;110365;1242;59760;-76
2023/04/22 10:03:27;;;;;;;5.70;5.00;;;;;;;25.27;20.33;97146.30;110328;1242;70814;-76
2023/04/22 10:05:56;;;;;;;5.50;4.70;;;;;;;24.07;21.09;97141.24;110286;1242;69214;-76
2023/04/22 10:08:25;;;;;;;10.30;9.30;;;;;;;24.11;21.72;97141.02;110335;1241;69281;-77
2023/04/22 10:10:54;;;;;;;;;;;;;;;24.27;21.31;97137.30;110302;1241;59748;-75
2023/04/22 10:13:23;;;;;;;5.70;5.10;;;;;;;23.95;21.01;97134.31;110294;1242;60095;-77
2023/04/22 10:15:54;;;;;;;6.50;5.70;;;;;;;23.43;21.86;97132.80;110323;1241;72017;-76
2023/04/22 10:18:28;;;;;;;7.60;5.50;;;;;;;23.23;23.20;97130.73;110314;1241;68366;-74
2023/04/22 10:20:58;;;;;;;7.50;5.30;;;;;;;22.77;23.46;97130.69;110287;1242;69385;-75
2023/04/22 10:23:31;;;;;;;7.30;5.10;;;;;;;22.79;22.80;97125.90;110322;1242;59710;-75
2023/04/22 10:26:00;;;;;;;6.20;5.30;;;;;;;22.22;23.84;97128.52;110284;1242;59640;-76
2023/04/22 10:28:29;;;;;;;5.20;4.70;;;;;;;21.81;23.96;97124.44;110323;1242;70840;-75
2023/04/22 10:30:58;;;;;;;5.40;4.70;;;;;;;21.44;23.98;97122.76;110319;1242;68461;-75
2023/04/22 10:33:27;;;;;;;6.00;5.20;;;;;;;21.28;24.75;97126.91;110321;1242;68576;-76
2023/04/22 10:36:07;;;;;;;5.40;4.70;;;;;;;21.12;25.10;97125.83;110220;1244;59756;-75
2023/04/22 10:38:53;;;;;;;5.40;4.60;;;;;;;21.18;24.90;97125.98;110294;1242;59653;-77
2023/04/22 10:41:24;;;;;;;5.30;4.80;;;;;;;21.23;24.61;97124.34;110186;1242;70750;-77
2023/04/22 10:44:05;;;;;;;6.40;4.90;;;;;;;21.28;24.79;97125.71;110166;1242;69294;-77
2023/04/22 10:46:35;;;;;;;6.20;5.60;;;;;;;21.07;26.79;97127.21;110385;1241;68505;-77
2023/04/22 10:49:10;;;;;;;6.20;4.60;;;;;;;20.99;26.37;97126.41;110545;1242;60130;-75
2023/04/22 10:51:48;;;;;;;6.10;5.10;;;;;;;20.84;26.39;97129.56;110880;1241;60191;-77
2023/04/22 10:54:28;;;;;;;6.40;5.50;;;;;;;20.77;26.26;97122.06;110379;1241;70429;-77
2023/04/22 10:57:08;;;;;;;5.90;5.30;;;;;;;20.71;26.89;97119.02;110168;1243;69051;-75
2023/04/22 10:59:42;;;;;;;7.70;5.80;;;;;;;21.19;26.68;97115.08;110251;1241;69308;-75
2023/04/22 11:02:13;;;;;;;5.80;5.20;;;;;;;21.82;26.27;97115.07;110293;1241;59729;-76
2023/04/22 11:04:44;;;;;;;6.80;5.20;;;;;;;22.51;25.33;97113.65;110332;1241;59667;-77
2023/04/22 11:07:25;;;;;;;;;;;;;;;23.14;24.28;97109.60;110314;1242;70655;-75
2023/04/22 11:10:14;;;;;;;7.10;5.60;;;;;;;23.66;23.99;97109.39;110322;1242;68326;-76
2023/04/22 11:12:44;;;;;;;6.40;4.70;;;;;;;24.18;24.29;97111.94;110276;1242;69270;-77
2023/04/22 11:15:15;;;;;;;6.50;4.80;;;;;;;24.63;24.55;97108.76;110313;1242;60098;-77
2023/04/22 11:17:51;;;;;;;7.20;5.40;;;;;;;24.89;22.51;97115.45;110299;1241;59602;-76
2023/04/22 11:20:20;;;;;;;5.40;4.90;;;;;;;25.13;22.78;97114.00;110321;1242;69645;-76
2023/04/22 11:22:54;;;;;;;6.10;5.10;;;;;;;25.85;21.92;97110.45;110289;1242;68727;-77
2023/04/22 11:25:26;;;;;;;5.80;4.90;;;;;;;26.51;21.46;97108.83;110315;1241;69446;-76
2023/04/22 11:27:56;;;;;;;5.50;4.80;;;;;;;26.56;20.96;97108.29;110147;1241;59737;-75
2023/04/22 11:30:27;;;;;;;6.20;4.90;;;;;;;26.66;21.01;97109.41;110315;1242;59603;-77
2023/04/22 11:32:58;;;;;;;5.50;5.00;;;;;;;25.77;19.87;97101.79;110354;1243;71319;-77
2023/04/22 11:35:30;;;;;;;5.00;4.50;;;;;;;25.91;21.23;97101.82;110367;1242;69114;-76
2023/04/22 11:38:01;;;;;;;5.60;5.00;;;;;;;26.54;21.14;97105.96;110178;1244;70093;-76
2023/04/22 11:40:33;;;;;;;5.60;5.00;;;;;;;26.02;20.68;97102.45;110374;1242;59709;-77
2023/04/22 11:43:08;;;;;;;7.40;5.30;;;;;;;25.36;21.17;97103.31;110343;1242;58881;-76